Time;durP1;ratioP1;P1;durP2;ratioP2;P2;SDS_P1;SDS_P2;PMS_P1;PMS_P2;Temp;Humidity;BMP_temperature;BMP_pressure;BME280_temperature;BME280_humidity;BME280_pressure;Samples;Min_cycle;Max_cycle;Signal;HPM_P1;HPM_P2
2022/03/12 00:01:54;;;;;;;13.07;8.70;;;4.90;57.80;;;;;;5043719;28;20279;-86
2022/03/12 00:04:20;;;;;;;18.50;8.63;;;4.90;58.10;;;;;;5042591;28;20236;-86
2022/03/12 00:06:47;;;;;;;16.47;10.17;;;4.90;58.70;;;;;;5043049;28;20188;-84
2022/03/12 00:09:12;;;;;;;16.70;8.27;;;4.80;58.30;;;;;;5062354;28;20193;-85
2022/03/12 00:12:01;;;;;;;15.93;9.60;;;4.80;58.70;;;;;;5043947;28;20210;-86
2022/03/12 00:14:27;;;;;;;18.48;8.95;;;4.80;58.60;;;;;;5061700;28;20601;-85
2022/03/12 00:16:52;;;;;;;16.58;8.45;;;4.70;58.40;;;;;;5062497;28;20168;-84
2022/03/12 00:19:20;;;;;;;16.73;8.70;;;4.70;58.30;;;;;;5061527;28;20173;-83
2022/03/12 00:21:50;;;;;;;14.15;8.90;;;4.80;58.30;;;;;;5044151;28;20507;-85
2022/03/12 00:24:17;;;;;;;15.00;9.20;;;4.80;58.40;;;;;;5044093;28;20245;-85
2022/03/12 00:26:45;;;;;;;21.30;10.50;;;4.90;59.40;;;;;;5061197;28;20168;-84
2022/03/12 00:29:14;;;;;;;15.18;10.25;;;4.90;59.50;;;;;;5060975;28;20150;-85
2022/03/12 00:31:45;;;;;;;18.73;9.13;;;4.90;59.20;;;;;;5038721;23;20233;-87
2022/03/12 00:34:11;;;;;;;19.23;9.48;;;4.80;59.00;;;;;;5016207;28;20235;-86
2022/03/12 00:36:37;;;;;;;15.15;9.57;;;4.70;59.10;;;;;;5043578;28;20469;-86
2022/03/12 00:39:07;;;;;;;19.05;9.32;;;4.80;59.10;;;;;;5046790;28;20191;-87
2022/03/12 00:41:32;;;;;;;15.40;8.65;;;4.90;58.80;;;;;;5046182;28;20209;-85
2022/03/12 00:43:58;;;;;;;13.23;7.90;;;4.90;58.70;;;;;;5035617;28;20288;-87
2022/03/12 00:46:23;;;;;;;20.47;9.60;;;4.90;58.70;;;;;;5044645;28;20181;-86
2022/03/12 00:48:49;;;;;;;13.03;8.13;;;;;;;;;;5041952;28;20195;-86
2022/03/12 00:51:16;;;;;;;10.70;7.77;;;4.90;58.00;;;;;;5017979;28;20661;-86
2022/03/12 00:53:42;;;;;;;22.92;9.13;;;4.90;58.40;;;;;;5043018;28;20476;-86
2022/03/12 00:56:08;;;;;;;18.13;9.10;;;4.90;58.40;;;;;;5028408;28;20177;-85
2022/03/12 00:58:35;;;;;;;14.32;8.73;;;4.90;58.40;;;;;;5048969;28;20271;-86
2022/03/12 01:01:02;;;;;;;14.40;8.90;;;4.90;58.50;;;;;;5051205;28;20280;-86
2022/03/12 01:03:27;;;;;;;13.27;7.72;;;4.90;59.10;;;;;;5047296;28;20192;-86
2022/03/12 01:06:00;;;;;;;18.57;9.00;;;5.00;58.30;;;;;;5039787;28;20185;-87
2022/03/12 01:08:30;;;;;;;12.15;7.47;;;5.00;58.40;;;;;;5041117;28;20187;-86
2022/03/12 01:10:58;;;;;;;13.25;8.95;;;4.90;58.00;;;;;;5033500;28;20184;-86
2022/03/12 01:13:24;;;;;;;15.60;9.50;;;5.00;58.10;;;;;;5058761;28;20244;-86
2022/03/12 01:15:49;;;;;;;13.13;8.07;;;4.90;58.00;;;;;;5052010;28;20186;-85
2022/03/12 01:18:18;;;;;;;15.07;8.67;;;4.90;57.40;;;;;;5046122;28;20424;-86
2022/03/12 01:20:44;;;;;;;12.40;7.07;;;4.90;58.00;;;;;;5047678;28;20463;-86
2022/03/12 01:23:13;;;;;;;17.45;7.75;;;4.90;57.90;;;;;;5050081;28;20186;-87
2022/03/12 01:25:40;;;;;;;14.25;8.30;;;4.90;58.00;;;;;;5050986;28;20180;-86
2022/03/12 01:28:08;;;;;;;11.80;8.30;;;4.90;57.90;;;;;;5028728;28;20204;-86
2022/03/12 01:30:34;;;;;;;13.68;8.25;;;4.90;58.00;;;;;;5038438;28;20219;-87
2022/03/12 01:33:00;;;;;;;18.05;8.70;;;4.90;57.70;;;;;;5044717;28;20289;-86
2022/03/12 01:35:26;;;;;;;14.73;8.43;;;4.90;57.80;;;;;;5032263;28;20867;-86
2022/03/12 01:37:53;;;;;;;14.47;10.03;;;4.90;57.60;;;;;;5047430;28;20447;-86
2022/03/12 01:40:18;;;;;;;15.52;8.65;;;4.90;57.80;;;;;;5025397;28;20207;-84
2022/03/12 01:42:44;;;;;;;13.80;7.73;;;4.90;57.90;;;;;;5032836;28;20830;-86
2022/03/12 01:45:18;;;;;;;19.57;10.03;;;6.50;58.80;;;;;;5041827;28;20197;-86
2022/03/12 01:47:45;;;;;;;16.52;9.45;;;4.90;57.70;;;;;;5051011;28;20215;-86
2022/03/12 01:50:10;;;;;;;12.35;8.05;;;5.00;57.80;;;;;;5052370;28;20173;-86
2022/03/12 01:52:36;;;;;;;13.37;8.03;;;5.00;57.60;;;;;;5059691;28;20185;-85
2022/03/12 01:55:05;;;;;;;16.73;8.93;;;5.00;57.40;;;;;;5048200;28;20201;-86
2022/03/12 01:57:31;;;;;;;15.10;8.00;;;5.00;57.40;;;;;;5038486;28;20177;-85
2022/03/12 01:59:58;;;;;;;10.10;6.93;;;5.00;57.10;;;;;;5036865;28;20205;-86
2022/03/12 02:02:23;;;;;;;18.48;9.57;;;5.00;57.20;;;;;;5050739;28;20244;-85
2022/03/12 02:04:52;;;;;;;13.57;8.70;;;5.00;57.40;;;;;;5033378;28;20204;-86
2022/03/12 02:07:20;;;;;;;12.35;7.85;;;5.10;57.30;;;;;;5052161;28;20185;-86
2022/03/12 02:09:46;;;;;;;15.07;8.90;;;5.10;57.20;;;;;;5030162;28;20215;-86
2022/03/12 02:12:12;;;;;;;11.00;8.13;;;5.00;56.70;;;;;;5046118;28;20184;-85
2022/03/12 02:14:38;;;;;;;14.63;7.90;;;5.00;56.90;;;;;;5046220;28;20564;-85
2022/03/12 02:17:12;;;;;;;13.97;7.50;;;5.10;56.60;;;;;;5039709;28;22116;-87
2022/03/12 02:19:40;;;;;;;14.60;7.57;;;5.00;57.00;;;;;;5023926;28;20201;-86
2022/03/12 02:22:16;;;;;;;8.70;7.20;;;5.00;56.50;;;;;;5049818;28;21281;-86
2022/03/12 02:24:42;;;;;;;13.65;7.00;;;5.00;56.40;;;;;;5050017;28;20207;-86
2022/03/12 02:27:10;;;;;;;14.83;7.00;;;5.00;56.30;;;;;;5035177;28;20181;-85
2022/03/12 02:29:37;;;;;;;12.70;8.10;;;5.10;56.40;;;;;;5030473;28;21235;-86
2022/03/12 02:32:09;;;;;;;11.25;7.68;;;5.00;57.20;;;;;;5053145;28;20200;-85
2022/03/12 02:34:42;;;;;;;12.93;8.25;;;4.90;56.90;;;;;;5040773;28;20315;-85
2022/03/12 02:37:09;;;;;;;15.48;8.45;;;5.20;57.90;;;;;;5038554;28;20490;-85
2022/03/12 02:39:38;;;;;;;15.63;7.90;;;4.80;57.50;;;;;;5031978;28;20294;-86
2022/03/12 02:42:08;;;;;;;11.90;8.93;;;4.80;57.00;;;;;;5030108;28;20268;-85
2022/03/12 02:44:34;;;;;;;16.83;7.72;;;4.90;57.30;;;;;;5027278;28;20208;-85
2022/03/12 02:47:22;;;;;;;13.30;8.00;;;4.90;57.30;;;;;;5045454;28;20720;-85
2022/03/12 02:49:57;;;;;;;16.88;8.82;;;5.20;57.60;;;;;;5027202;28;20179;-86
2022/03/12 02:52:26;;;;;;;17.45;7.90;;;4.90;57.50;;;;;;5041771;28;20177;-85
2022/03/12 02:54:53;;;;;;;15.70;8.82;;;4.80;57.90;;;;;;5025026;28;20239;-84
2022/03/12 02:57:26;;;;;;;16.58;8.63;;;4.70;57.90;;;;;;5045799;28;20180;-86
2022/03/12 02:59:53;;;;;;;25.92;9.35;;;4.80;57.80;;;;;;5042409;28;20193;-85
2022/03/12 03:02:25;;;;;;;13.77;8.50;;;4.70;58.30;;;;;;5047852;28;20387;-85
2022/03/12 03:04:51;;;;;;;16.15;8.70;;;4.60;58.40;;;;;;5039866;28;20197;-85
2022/03/12 03:07:17;;;;;;;15.75;11.05;;;4.60;58.60;;;;;;5040370;28;20192;-84
2022/03/12 03:09:43;;;;;;;19.05;8.27;;;4.70;58.40;;;;;;5036581;28;20708;-85
2022/03/12 03:12:10;;;;;;;18.17;8.50;;;4.70;58.20;;;;;;5041754;28;20219;-85
2022/03/12 03:14:43;;;;;;;13.13;9.15;;;4.80;58.30;;;;;;5030485;28;20201;-84
2022/03/12 03:17:12;;;;;;;13.00;8.55;;;4.80;58.20;;;;;;5022662;28;20201;-84
2022/03/12 03:19:38;;;;;;;12.63;8.43;;;4.90;57.90;;;;;;5018792;28;20201;-85
2022/03/12 03:22:05;;;;;;;17.85;8.60;;;4.80;58.00;;;;;;5042274;28;20181;-85
2022/03/12 03:24:30;;;;;;;11.25;7.85;;;4.80;58.30;;;;;;5028298;28;20227;-85
2022/03/12 03:26:58;;;;;;;14.80;8.90;;;4.80;58.60;;;;;;5044038;28;20322;-85
2022/03/12 03:29:27;;;;;;;13.27;8.63;;;4.80;57.60;;;;;;5039105;28;20181;-85
2022/03/12 03:31:53;;;;;;;16.75;8.40;;;4.80;58.10;;;;;;5026497;28;20201;-85
2022/03/12 03:34:19;;;;;;;14.50;8.57;;;4.80;58.00;;;;;;5027678;28;20320;-85
2022/03/12 03:36:45;;;;;;;13.70;8.80;;;4.80;57.60;;;;;;5033999;28;20440;-85
2022/03/12 03:39:11;;;;;;;11.32;7.88;;;4.70;57.60;;;;;;5047962;28;20627;-84
2022/03/12 03:41:36;;;;;;;14.40;8.90;;;4.80;58.00;;;;;;5028089;28;20209;-85
2022/03/12 03:44:02;;;;;;;15.50;8.67;;;4.80;58.00;;;;;;5039335;28;20217;-85
2022/03/12 03:46:28;;;;;;;15.53;9.27;;;4.80;58.20;;;;;;5048215;28;20335;-85
2022/03/12 03:48:54;;;;;;;12.30;8.03;;;4.70;57.70;;;;;;5033748;28;20803;-85
2022/03/12 03:51:21;;;;;;;9.10;7.45;;;4.70;58.80;;;;;;5049109;28;20209;-85
2022/03/12 03:53:48;;;;;;;15.10;7.78;;;5.80;59.10;;;;;;5045740;28;20201;-85
2022/03/12 03:56:15;;;;;;;13.65;7.10;;;4.60;58.10;;;;;;5052032;28;20260;-85
2022/03/12 03:58:41;;;;;;;11.98;7.38;;;4.60;58.20;;;;;;5045213;28;20726;-85
2022/03/12 04:01:12;;;;;;;12.80;8.37;;;4.50;58.80;;;;;;5030044;28;20213;-85
2022/03/12 04:03:44;;;;;;;12.77;6.95;;;4.50;58.50;;;;;;5038160;28;20200;-85
2022/03/12 04:06:10;;;;;;;17.65;9.30;;;4.40;58.70;;;;;;5032095;28;20215;-85
2022/03/12 04:08:36;;;;;;;13.90;7.20;;;4.40;59.00;;;;;;5036055;28;20177;-85
2022/03/12 04:11:04;;;;;;;20.10;9.27;;;4.30;59.30;;;;;;5046342;28;20216;-84
2022/03/12 04:13:31;;;;;;;12.95;9.50;;;4.30;59.90;;;;;;5032778;28;20260;-84
2022/03/12 04:15:59;;;;;;;15.65;8.70;;;4.30;59.30;;;;;;5037508;28;20185;-85
2022/03/12 04:18:25;;;;;;;12.88;8.18;;;4.30;59.70;;;;;;5050250;28;20193;-85
2022/03/12 04:20:51;;;;;;;19.30;7.72;;;4.30;59.70;;;;;;5034226;28;20345;-85
2022/03/12 04:23:21;;;;;;;16.35;7.93;;;4.30;60.00;;;;;;5052412;28;20181;-84
2022/03/12 04:25:51;;;;;;;14.15;8.93;;;4.10;61.00;;;;;;5063128;28;20346;-84
2022/03/12 04:28:18;;;;;;;16.98;8.00;;;4.10;60.90;;;;;;5039855;28;20185;-85
2022/03/12 04:30:44;;;;;;;12.73;9.15;;;4.20;60.60;;;;;;5042890;28;20188;-85
2022/03/12 04:33:11;;;;;;;14.20;8.05;;;4.20;61.40;;;;;;5037923;28;20197;-84
2022/03/12 04:35:37;;;;;;;12.93;7.97;;;4.30;60.70;;;;;;5050904;28;20181;-84
2022/03/12 04:38:03;;;;;;;22.63;8.52;;;4.30;60.00;;;;;;5033621;28;20201;-85
2022/03/12 04:40:29;;;;;;;18.50;8.03;;;4.10;59.90;;;;;;5050471;28;20737;-84
2022/03/12 04:42:55;;;;;;;19.67;9.20;;;4.20;60.30;;;;;;5046792;28;20200;-84
2022/03/12 04:45:23;;;;;;;18.20;8.30;;;4.20;60.10;;;;;;5045810;28;20190;-85
2022/03/12 04:47:52;;;;;;;15.00;7.90;;;4.00;60.90;;;;;;5033574;28;20667;-85
2022/03/12 04:50:20;;;;;;;15.57;8.73;;;4.00;61.00;;;;;;5022769;28;20180;-85
2022/03/12 04:52:57;;;;;;;14.95;8.95;;;4.00;62.10;;;;;;5047495;28;20188;-85
2022/03/12 04:55:26;;;;;;;19.25;9.77;;;4.00;63.10;;;;;;5049814;28;20226;-85
2022/03/12 04:57:52;;;;;;;17.40;10.50;;;3.90;63.70;;;;;;5035920;28;20181;-85
2022/03/12 05:00:26;;;;;;;15.68;8.35;;;3.90;63.80;;;;;;5042868;28;20201;-85
2022/03/12 05:03:04;;;;;;;12.18;8.23;;;3.90;63.80;;;;;;5052901;28;20205;-84
2022/03/12 05:05:30;;;;;;;15.05;9.20;;;3.90;64.90;;;;;;5044346;28;20182;-84
2022/03/12 05:07:58;;;;;;;15.13;8.55;;;3.90;66.10;;;;;;5034173;28;20182;-85
2022/03/12 05:10:26;;;;;;;16.42;8.23;;;3.90;66.40;;;;;;5049103;28;20694;-85
2022/03/12 05:13:00;;;;;;;12.88;8.40;;;3.90;65.40;;;;;;5045983;28;21279;-85
2022/03/12 05:15:28;;;;;;;13.77;8.48;;;4.10;65.00;;;;;;5059733;28;20185;-84
2022/03/12 05:17:56;;;;;;;16.48;8.98;;;4.00;65.50;;;;;;5036029;28;20223;-84
2022/03/12 05:20:25;;;;;;;24.08;13.10;;;3.90;68.40;;;;;;5039318;28;20210;-85
2022/03/12 05:22:50;;;;;;;20.40;10.63;;;3.90;67.90;;;;;;5036213;28;20213;-85
2022/03/12 05:25:18;;;;;;;16.37;9.57;;;4.00;67.20;;;;;;5030761;28;20212;-84
2022/03/12 05:27:46;;;;;;;12.50;7.28;;;3.90;69.20;;;;;;5037290;28;20402;-84
2022/03/12 05:30:12;;;;;;;12.55;7.90;;;3.90;70.20;;;;;;5044754;28;20181;-85
2022/03/12 05:32:37;;;;;;;18.93;9.10;;;3.90;69.30;;;;;;5047528;28;20253;-84
2022/03/12 05:35:04;;;;;;;14.70;8.57;;;4.00;69.00;;;;;;5037594;28;21209;-84
2022/03/12 05:37:29;;;;;;;15.18;8.90;;;4.00;68.50;;;;;;5046710;28;20585;-84
2022/03/12 05:39:55;;;;;;;19.00;8.63;;;4.00;68.30;;;;;;5045100;28;20283;-83
2022/03/12 05:42:22;;;;;;;35.93;8.37;;;4.10;67.60;;;;;;5047239;28;20180;-85
2022/03/12 05:44:48;;;;;;;14.50;8.30;;;4.00;66.00;;;;;;5028658;28;20197;-85
2022/03/12 05:47:13;;;;;;;12.88;7.45;;;3.90;65.80;;;;;;5042387;28;20185;-84
2022/03/12 05:49:39;;;;;;;15.50;9.53;;;3.90;65.20;;;;;;5045503;28;20735;-85
2022/03/12 05:52:07;;;;;;;20.50;9.50;;;3.80;71.00;;;;;;5033112;28;20252;-85
2022/03/12 05:54:33;;;;;;;13.73;9.23;;;3.50;72.50;;;;;;5024774;28;20444;-86
2022/03/12 05:56:59;;;;;;;18.43;9.00;;;3.40;73.50;;;;;;5043018;28;20196;-84
2022/03/12 05:59:24;;;;;;;17.50;9.20;;;3.20;74.30;;;;;;5026254;28;20232;-86
2022/03/12 06:01:50;;;;;;;17.40;9.77;;;3.20;74.20;;;;;;5025018;28;20205;-85
2022/03/12 06:04:25;;;;;;;16.10;10.00;;;3.20;74.20;;;;;;5033848;28;20666;-85
2022/03/12 06:06:51;;;;;;;14.48;8.40;;;3.30;74.00;;;;;;5041890;28;20869;-85
2022/03/12 06:09:17;;;;;;;12.45;7.63;;;3.20;72.90;;;;;;5046085;28;20225;-85
2022/03/12 06:11:42;;;;;;;12.77;7.70;;;3.10;73.10;;;;;;5032861;28;20212;-85
2022/03/12 06:14:15;;;;;;;12.63;7.50;;;3.20;72.40;;;;;;5044391;28;20262;-85
2022/03/12 06:16:48;;;;;;;16.17;8.35;;;3.20;71.80;;;;;;5027960;28;20182;-86
2022/03/12 06:19:16;;;;;;;12.25;7.97;;;3.40;71.90;;;;;;5042827;28;20633;-85
2022/03/12 06:21:42;;;;;;;13.38;8.35;;;3.60;73.90;;;;;;5045183;28;20201;-85
2022/03/12 06:24:08;;;;;;;15.98;8.23;;;3.70;76.40;;;;;;5046028;28;20201;-85
2022/03/12 06:26:35;;;;;;;15.30;8.47;;;3.90;73.40;;;;;;5048754;28;20243;-86
2022/03/12 06:29:06;;;;;;;13.50;8.73;;;4.40;73.30;;;;;;5047512;28;20188;-85
2022/03/12 06:31:33;;;;;;;20.25;8.77;;;4.90;74.90;;;;;;5033454;28;20225;-86
2022/03/12 06:33:58;;;;;;;17.25;8.73;;;5.50;74.20;;;;;;5047844;28;20201;-86
2022/03/12 06:36:24;;;;;;;13.10;8.57;;;8.90;74.00;;;;;;5052608;28;20171;-85
2022/03/12 06:38:50;;;;;;;15.40;8.20;;;6.90;70.30;;;;;;5037930;28;20253;-85
2022/03/12 06:41:18;;;;;;;14.70;10.20;;;7.80;70.10;;;;;;5034311;28;20459;-85
2022/03/12 06:43:44;;;;;;;13.27;8.82;;;8.80;65.90;;;;;;5028770;28;20203;-85
2022/03/12 06:46:15;;;;;;;26.67;10.00;;;9.50;63.00;;;;;;5039973;28;20201;-83
2022/03/12 06:48:41;;;;;;;16.63;9.00;;;10.40;59.50;;;;;;5042245;28;20185;-85
2022/03/12 06:51:10;;;;;;;16.55;9.13;;;11.40;59.20;;;;;;5040087;28;20193;-84
2022/03/12 06:53:37;;;;;;;14.77;9.60;;;11.90;57.30;;;;;;5043002;28;20197;-86
2022/03/12 06:56:02;;;;;;;16.00;8.50;;;11.90;56.40;;;;;;5044020;28;20284;-88
2022/03/12 06:58:29;;;;;;;15.00;8.50;;;12.00;54.40;;;;;;5038562;28;20732;-84
2022/03/12 07:00:56;;;;;;;18.77;9.15;;;11.70;52.80;;;;;;5022808;28;20206;-87
2022/03/12 07:03:22;;;;;;;14.65;8.82;;;11.20;52.00;;;;;;5022429;28;20215;-87
2022/03/12 07:05:47;;;;;;;17.10;8.07;;;10.40;50.20;;;;;;5030048;28;20571;-84
2022/03/12 07:08:13;;;;;;;13.70;8.50;;;9.50;52.20;;;;;;5036371;28;20443;-85
2022/03/12 07:10:38;;;;;;;10.70;8.20;;;9.30;53.40;;;;;;5043130;28;20416;-84
2022/03/12 07:13:04;;;;;;;13.37;7.40;;;9.60;53.80;;;;;;5021749;28;20311;-85
2022/03/12 07:15:29;;;;;;;12.50;8.00;;;9.90;53.00;;;;;;5014062;28;20803;-84
2022/03/12 07:17:56;;;;;;;13.43;8.80;;;9.80;53.40;;;;;;5035442;28;20185;-84
2022/03/12 07:20:21;;;;;;;14.48;8.77;;;9.60;53.00;;;;;;5034180;28;23321;-85
2022/03/12 07:22:47;;;;;;;13.80;8.00;;;9.60;53.40;;;;;;5037672;28;20185;-84
2022/03/12 07:25:14;;;;;;;15.17;7.77;;;9.90;53.60;;;;;;5023595;28;20208;-87
2022/03/12 07:27:40;;;;;;;19.95;8.30;;;10.50;52.30;;;;;;5018376;28;20204;-85
2022/03/12 07:30:08;;;;;;;10.30;7.50;;;11.00;52.30;;;;;;5014283;28;20197;-85
2022/03/12 07:32:35;;;;;;;17.15;8.98;;;12.30;52.10;;;;;;5022566;28;20189;-87
2022/03/12 07:35:02;;;;;;;14.35;8.15;;;13.50;50.80;;;;;;5015797;28;20205;-86
2022/03/12 07:37:27;;;;;;;11.25;7.53;;;14.30;48.90;;;;;;5039641;28;20181;-87
2022/03/12 07:39:53;;;;;;;19.07;8.67;;;15.00;47.60;;;;;;5023922;28;20200;-88
2022/03/12 07:42:19;;;;;;;13.00;9.40;;;15.80;47.40;;;;;;5040405;28;20173;-86
2022/03/12 07:44:45;;;;;;;12.90;9.30;;;16.60;46.70;;;;;;5039965;28;20698;-87
2022/03/12 07:47:12;;;;;;;12.93;9.43;;;17.30;44.70;;;;;;5024832;28;20439;-87
2022/03/12 07:49:38;;;;;;;14.60;9.60;;;17.30;44.30;;;;;;5041526;28;20212;-86
2022/03/12 07:52:06;;;;;;;15.83;8.77;;;17.80;43.70;;;;;;5043059;28;20432;-88
2022/03/12 07:54:33;;;;;;;13.50;9.47;;;18.30;43.90;;;;;;5047815;28;20471;-88
2022/03/12 07:56:58;;;;;;;17.83;10.33;;;18.90;42.00;;;;;;5041757;28;20435;-88
2022/03/12 07:59:25;;;;;;;16.73;11.77;;;19.10;40.80;;;;;;5048559;28;20939;-87
2022/03/12 08:01:51;;;;;;;14.67;10.00;;;19.60;41.40;;;;;;5048677;28;20178;-87
2022/03/12 08:04:17;;;;;;;14.77;9.73;;;20.00;40.40;;;;;;5043089;28;20539;-88
2022/03/12 08:06:43;;;;;;;18.23;9.87;;;20.60;40.00;;;;;;5037905;28;20554;-87
2022/03/12 08:09:09;;;;;;;20.00;12.13;;;19.60;37.30;;;;;;5033941;28;20710;-87
2022/03/12 08:11:35;;;;;;;14.27;10.10;;;19.90;39.80;;;;;;5049872;28;20432;-86
2022/03/12 08:14:09;;;;;;;15.07;10.03;;;20.60;38.70;;;;;;5031126;28;20567;-89
2022/03/12 08:16:35;;;;;;;14.60;9.30;;;20.70;36.50;;;;;;5046979;28;21061;-89
2022/03/12 08:19:06;;;;;;;14.83;10.10;;;20.40;36.10;;;;;;5042056;28;20970;-89
2022/03/12 08:21:33;;;;;;;14.10;10.50;;;20.10;36.80;;;;;;5025879;28;22411;-88
2022/03/12 08:24:01;;;;;;;14.37;10.40;;;20.20;37.30;;;;;;5035964;28;20481;-88
2022/03/12 08:26:28;;;;;;;12.27;9.83;;;20.20;36.40;;;;;;5026138;28;20449;-87
2022/03/12 08:28:54;;;;;;;15.93;10.30;;;19.70;36.00;;;;;;5025696;28;20440;-88
2022/03/12 08:31:20;;;;;;;19.10;10.83;;;18.60;36.40;;;;;;5027027;28;20513;-88
2022/03/12 08:33:46;;;;;;;15.73;9.47;;;17.30;37.20;;;;;;5027145;28;21072;-88
2022/03/12 08:36:12;;;;;;;17.10;10.07;;;16.90;39.00;;;;;;5047261;28;20194;-86
2022/03/12 08:38:38;;;;;;;15.00;10.90;;;16.60;38.60;;;;;;5045017;28;20256;-87
2022/03/12 08:41:06;;;;;;;15.00;9.87;;;16.10;39.90;;;;;;5042758;28;20296;-88
2022/03/12 08:43:36;;;;;;;19.08;9.68;;;16.00;40.70;;;;;;5046714;28;20193;-87
2022/03/12 08:46:03;;;;;;;16.60;11.32;;;15.90;40.10;;;;;;5050341;28;20181;-88
2022/03/12 08:48:30;;;;;;;17.08;10.45;;;15.80;40.80;;;;;;5045873;28;20178;-87
2022/03/12 08:50:55;;;;;;;16.07;10.73;;;15.80;40.80;;;;;;5034863;28;20182;-87
2022/03/12 08:53:21;;;;;;;12.93;9.77;;;16.00;40.70;;;;;;5028860;28;20459;-88
2022/03/12 08:55:47;;;;;;;20.57;9.70;;;16.20;41.20;;;;;;5043344;28;20256;-87
2022/03/12 08:58:13;;;;;;;15.73;10.77;;;16.20;40.90;;;;;;5016430;28;20201;-88
2022/03/12 09:00:39;;;;;;;15.23;9.80;;;16.20;41.30;;;;;;5037408;28;20511;-88
2022/03/12 09:03:05;;;;;;;18.83;10.67;;;16.10;41.10;;;;;;5049477;28;20198;-89
2022/03/12 09:05:31;;;;;;;15.13;10.83;;;16.10;41.50;;;;;;5028899;28;20509;-87
2022/03/12 09:07:58;;;;;;;17.30;10.70;;;16.20;41.30;;;;;;5034846;28;20435;-87
2022/03/12 09:10:24;;;;;;;17.00;10.77;;;16.40;41.10;;;;;;5031937;28;20434;-87
2022/03/12 09:12:50;;;;;;;22.17;12.63;;;16.40;42.00;;;;;;5036147;28;20427;-88
2022/03/12 09:15:20;;;;;;;15.77;11.03;;;17.20;41.60;;;;;;5029969;28;20470;-89
2022/03/12 09:17:45;;;;;;;15.20;10.87;;;18.10;40.50;;;;;;5020543;28;20185;-88
2022/03/12 09:20:12;;;;;;;13.50;11.60;;;18.00;40.00;;;;;;5040777;28;20463;-89
2022/03/12 09:22:38;;;;;;;17.80;11.70;;;18.40;39.40;;;;;;5070385;28;20177;-90
2022/03/12 09:25:09;;;;;;;25.07;13.90;;;18.90;39.00;;;;;;5036835;28;20467;-89
2022/03/12 09:27:35;;;;;;;26.67;11.60;;;19.40;38.70;;;;;;5064189;28;20434;-90
2022/03/12 09:30:01;;;;;;;15.93;11.10;;;19.60;38.80;;;;;;5061660;28;21045;-90
2022/03/12 09:32:26;;;;;;;19.63;11.57;;;19.80;38.80;;;;;;5056262;28;20672;-89
2022/03/12 09:34:52;;;;;;;17.90;12.20;;;20.00;37.80;;;;;;5050522;28;20678;-90
2022/03/12 09:37:18;;;;;;;23.00;12.80;;;20.20;39.20;;;;;;5035489;28;20189;-88
2022/03/12 09:39:44;;;;;;;16.60;11.87;;;20.20;37.20;;;;;;5039943;28;20467;-89
2022/03/12 09:42:09;;;;;;;18.30;12.90;;;19.80;37.40;;;;;;5031318;28;20203;-90
2022/03/12 09:44:35;;;;;;;18.37;12.37;;;;;;;;;;5035915;28;20460;-89
2022/03/12 09:47:01;;;;;;;23.50;13.90;;;;;;;;;;5047830;28;20263;-89
2022/03/12 09:49:27;;;;;;;17.23;12.27;;;;;;;;;;5044239;28;20545;-88
2022/03/12 09:51:53;;;;;;;24.93;13.20;;;;;;;;;;5047307;28;20962;-90
2022/03/12 09:54:20;;;;;;;20.67;11.53;;;;;;;;;;5045930;28;20494;-90
2022/03/12 09:56:46;;;;;;;19.43;12.17;;;;;;;;;;5030516;28;20420;-89
2022/03/12 09:59:12;;;;;;;21.03;12.27;;;;;;;;;;5034762;28;20432;-88
2022/03/12 10:01:37;;;;;;;16.93;11.00;;;17.60;39.10;;;;;;5037607;28;20463;-89
2022/03/12 10:04:03;;;;;;;28.33;12.70;;;18.10;40.30;;;;;;5042930;28;20448;-90
2022/03/12 10:06:30;;;;;;;15.90;11.40;;;18.20;39.80;;;;;;5047519;28;20177;-88
2022/03/12 10:08:56;;;;;;;21.73;12.90;;;18.10;40.20;;;;;;5029551;28;21097;-89
2022/03/12 10:11:22;;;;;;;23.30;14.60;;;17.00;39.20;;;;;;5049058;28;20439;-89
2022/03/12 10:13:48;;;;;;;20.63;13.70;;;16.40;41.00;;;;;;5049048;28;20457;-89
2022/03/12 10:16:14;;;;;;;20.83;11.57;;;15.60;41.20;;;;;;5046639;28;20177;-90
2022/03/12 10:18:41;;;;;;;28.63;12.67;;;15.10;43.10;;;;;;5044357;28;20185;-90
2022/03/12 10:21:07;;;;;;;23.45;13.48;;;14.90;43.20;;;;;;5045937;28;20460;-89
2022/03/12 10:23:34;;;;;;;22.15;13.00;;;14.60;44.60;;;;;;5049386;28;20197;-89
2022/03/12 10:25:59;;;;;;;23.67;11.80;;;15.30;45.00;;;;;;5037524;28;20180;-89
2022/03/12 10:28:26;;;;;;;19.47;12.77;;;13.50;45.50;;;;;;5047751;28;20433;-89
2022/03/12 10:30:53;;;;;;;22.38;12.32;;;13.60;46.70;;;;;;5046335;28;20348;-88
2022/03/12 10:33:24;;;;;;;19.40;12.18;;;13.70;46.70;;;;;;5049017;28;20208;-88
2022/03/12 10:35:50;;;;;;;23.02;13.50;;;13.50;46.20;;;;;;5029289;28;20182;-88
2022/03/12 10:38:17;;;;;;;19.60;11.40;;;13.30;46.70;;;;;;5037531;28;20189;-89
2022/03/12 10:40:43;;;;;;;20.50;12.65;;;12.80;46.50;;;;;;5038359;28;20200;-90
2022/03/12 10:43:18;;;;;;;18.90;12.10;;;12.70;47.20;;;;;;5039584;28;20395;-89
2022/03/12 10:45:52;;;;;;;23.23;11.95;;;12.70;47.70;;;;;;5032111;28;20185;-90
2022/03/12 10:48:20;;;;;;;21.55;11.80;;;13.00;49.60;;;;;;5047918;28;20188;-89
2022/03/12 10:50:48;;;;;;;29.27;12.45;;;13.10;48.20;;;;;;5049235;28;20501;-89
2022/03/12 10:53:15;;;;;;;21.75;11.88;;;13.00;48.40;;;;;;5040639;28;20193;-90
2022/03/12 10:55:46;;;;;;;22.63;13.00;;;13.20;49.10;;;;;;5054580;28;20264;-90
2022/03/12 10:58:24;;;;;;;18.17;12.20;;;13.30;48.90;;;;;;5054614;28;20212;-90
2022/03/12 11:00:52;;;;;;;18.98;12.20;;;13.50;48.90;;;;;;5049979;28;20189;-89
2022/03/12 11:03:35;;;;;;;22.98;12.80;;;13.60;48.60;;;;;;5048043;28;20255;-89
2022/03/12 11:06:04;;;;;;;23.42;12.35;;;13.50;48.40;;;;;;5038380;28;20207;-89
2022/03/12 11:08:33;;;;;;;17.83;12.02;;;13.80;49.40;;;;;;5038362;28;20203;-89
2022/03/12 11:11:00;;;;;;;25.27;13.15;;;13.90;48.20;;;;;;5051153;28;20759;-89
2022/03/12 11:13:52;;;;;;;20.08;12.88;;;13.80;48.00;;;;;;5035984;28;20233;-89
2022/03/12 11:16:29;;;;;;;20.52;11.85;;;13.70;48.80;;;;;;5029090;28;20185;-89
2022/03/12 11:19:07;;;;;;;17.23;11.68;;;13.80;48.70;;;;;;5049084;28;20720;-89
2022/03/12 11:21:45;;;;;;;22.95;14.73;;;13.90;48.40;;;;;;5046497;28;20263;-89
2022/03/12 11:24:18;;;;;;;19.45;13.15;;;14.00;48.40;;;;;;5046974;28;20201;-89
2022/03/12 11:26:56;;;;;;;27.38;14.18;;;13.90;48.70;;;;;;5041651;28;20237;-88
2022/03/12 11:29:25;;;;;;;28.05;12.98;;;14.00;48.80;;;;;;5025960;28;20187;-90
2022/03/12 11:31:58;;;;;;;18.67;12.25;;;14.20;48.10;;;;;;5046673;28;20195;-89
2022/03/12 11:34:36;;;;;;;19.50;12.30;;;14.00;48.40;;;;;;5042490;28;20196;-89
2022/03/12 11:37:15;;;;;;;23.35;14.07;;;13.90;48.10;;;;;;5030758;28;20208;-90
2022/03/12 11:39:46;;;;;;;17.00;12.23;;;14.00;48.20;;;;;;5046484;28;20264;-89
2022/03/12 11:42:17;;;;;;;28.40;13.90;;;14.00;48.40;;;;;;5044006;28;20235;-90
2022/03/12 11:44:46;;;;;;;18.57;11.60;;;14.10;49.10;;;;;;5053459;28;20194;-91
2022/03/12 11:47:22;;;;;;;21.70;12.80;;;14.20;48.10;;;;;;5050166;28;20440;-91
2022/03/12 11:49:51;;;;;;;17.45;11.43;;;14.50;49.30;;;;;;5055957;28;20241;-90
2022/03/12 11:52:19;;;;;;;15.93;11.48;;;14.50;48.00;;;;;;5034440;28;20209;-90
2022/03/12 11:54:45;;;;;;;21.73;12.48;;;14.40;48.00;;;;;;5053618;28;20202;-90
2022/03/12 11:57:22;;;;;;;17.80;12.10;;;14.40;48.30;;;;;;5032134;28;20295;-89
2022/03/12 11:59:48;;;;;;;17.67;11.67;;;14.70;48.50;;;;;;5037049;28;20439;-89
2022/03/12 12:02:34;;;;;;;20.03;12.47;;;14.80;48.70;;;;;;5037208;28;20495;-91
2022/03/12 12:05:06;;;;;;;20.70;13.00;;;15.10;48.40;;;;;;5031212;28;20204;-90
2022/03/12 12:07:36;;;;;;;18.33;12.07;;;15.20;47.80;;;;;;5039517;28;20500;-89
2022/03/12 12:10:04;;;;;;;39.97;12.73;;;15.00;47.50;;;;;;5037229;28;21000;-89
2022/03/12 12:12:34;;;;;;;17.43;11.03;;;15.00;48.20;;;;;;5046815;28;20442;-90
2022/03/12 12:15:04;;;;;;;23.80;13.80;;;15.00;48.00;;;;;;5048802;28;20454;-88
2022/03/12 12:17:31;;;;;;;18.47;11.27;;;15.00;48.00;;;;;;5052146;28;20435;-89
2022/03/12 12:19:57;;;;;;;23.10;12.20;;;15.20;49.30;;;;;;5057300;28;20482;-90
2022/03/12 12:22:23;;;;;;;22.80;12.77;;;15.50;48.60;;;;;;5062967;28;20443;-89
2022/03/12 12:24:52;;;;;;;20.90;11.73;;;15.40;47.70;;;;;;5052821;28;20443;-90
2022/03/12 12:27:23;;;;;;;16.57;12.20;;;15.40;48.20;;;;;;5043530;28;20448;-89
2022/03/12 12:29:58;;;;;;;19.57;12.20;;;15.50;49.50;;;;;;5041323;28;20491;-89
2022/03/12 12:32:25;;;;;;;17.13;11.60;;;15.60;49.30;;;;;;5051479;28;20513;-90
2022/03/12 12:34:59;;;;;;;18.43;12.03;;;15.70;48.80;;;;;;5037560;28;20440;-89
2022/03/12 12:37:51;;;;;;;23.90;11.80;;;15.80;48.70;;;;;;5054557;28;20426;-89
2022/03/12 12:40:23;;;;;;;18.00;10.50;;;15.80;48.90;;;;;;5037632;28;20575;-90
2022/03/12 12:42:50;;;;;;;19.17;10.47;;;15.90;48.70;;;;;;5040293;28;20424;-91
2022/03/12 12:45:21;;;;;;;24.60;13.10;;;15.90;48.90;;;;;;5051758;28;20443;-89